Aviation Digital Data Service (ADDS)

Output produced by METARs form (0152 UTC 22 June 2018)
found at http://www.aviationweather.gov/adds/metars/
 
EFSI 220120Z AUTO 03010KT 360V060 9999 RA FEW006 BKN017 10/09 Q0991
EFSI 220050Z AUTO 03008KT 350V060 9999 RA OVC020 10/09 Q0993
EFSI 220020Z AUTO 04009KT 360V090 9999 RA OVC020 10/09 Q0993
EFSI 212350Z AUTO 04009KT 350V090 9999 -RA SCT026 BKN035 BKN065 10/09 Q0994
EFSI 212320Z AUTO 04009KT 350V070 9999 -RA FEW031 SCT047 OVC065 10/09 Q0995
EFSI 212250Z AUTO 01004KT 330V070 9999 -RA OVC034 10/09 Q0996
EFSI 212220Z AUTO 36002KT 9999 -RA OVC037 10/09 Q0997
EFSI 212150Z AUTO 06003KT 9999 -SHRA OVC042 11/09 Q0997
EFSI 212120Z AUTO 03003KT 9999 -SHRA OVC045 11/08 Q0998
EFSI 212050Z AUTO 04005KT 360V090 9999 -RA OVC043 11/09 Q0998
EFSI 212020Z AUTO 08004KT 050V130 9999 -RA OVC042 12/08 Q0999
EFSI 211950Z AUTO 08006KT 050V140 9999 OVC048 12/08 Q0999
EFSI 211920Z AUTO 05004KT CAVOK 12/10 Q0999
EFSI 211850Z AUTO 07004KT 9999 -SHRA OVC055 12/10 Q0999
EFSI 211820Z AUTO 04003KT CAVOK 12/10 Q1000
EFSI 211750Z AUTO 35001KT 9999 -RA FEW030 BKN050 12/11 Q1000
EFSI 211720Z AUTO 06001KT 9999 -RA FEW037 BKN050 13/10 Q1000
EFSI 211650Z AUTO 25001KT 9999 -RA ////// 13/09 Q1001
EFSI 211620Z AUTO 19007KT 150V220 9999 -SHRA ////// 14/08 Q1001
EFSI 211550Z AUTO 05004KT 010V090 9999 -SHRA ////// 16/07 Q1000
EFSI 211520Z AUTO 02002KT CAVOK 17/05 Q1000
EFSI 211450Z AUTO 05005KT 020V090 CAVOK 17/04 Q1001
EFSI 211350Z AUTO 05006KT 010V090 CAVOK 18/04 Q1001
EFSI 211320Z AUTO 02005KT 350V080 CAVOK 18/05 Q1001
EFSI 211250Z AUTO 04005KT 010V080 CAVOK 18/05 Q1001
EFSI 211220Z AUTO 06005KT 360V100 CAVOK 18/03 Q1001
EFSI 211150Z AUTO 04005KT 360V090 CAVOK 19/04 Q1001
EFSI 211120Z AUTO 06004KT 350V170 CAVOK 19/03 Q1002
EFSI 211050Z AUTO VRB01KT CAVOK 19/03 Q1002
EFSI 211020Z AUTO VRB01KT 9999 ////// 18/02 Q1002
EFSI 210950Z AUTO VRB03KT 9999 ////// 18/02 Q1002
EFSI 210920Z AUTO VRB03KT 9999 ////// 18/03 Q1003
EFSI 210850Z AUTO VRB04KT 9999 ////// 18/03 Q1003
EFSI 210820Z AUTO VRB04KT 9999 ////// 17/05 Q1003
EFSI 210750Z AUTO 08003KT 9999 ////// 17/05 Q1003
EFSI 210720Z AUTO VRB02KT 9999 ////// 16/05 Q1003
EFSI 210650Z AUTO VRB03KT 9999 ////// 16/05 Q1003
EFSI 210620Z AUTO VRB01KT 9999 ////// 14/05 Q1003
EFSI 210550Z AUTO VRB01KT CAVOK 14/05 Q1004
EFSI 210520Z AUTO 34002KT CAVOK 13/05 Q1004
EFSI 210450Z AUTO 31001KT CAVOK 12/06 Q1004
EFSI 210420Z AUTO VRB01KT CAVOK 12/06 Q1004
EFSI 210350Z AUTO 25001KT CAVOK 11/06 Q1004
EFSI 210320Z AUTO 00000KT CAVOK 10/05 Q1004
EFSI 210250Z AUTO 19001KT CAVOK 07/05 Q1004
EFSI 210220Z AUTO 20001KT CAVOK 06/03 Q1004
EFSI 210150Z AUTO 15001KT CAVOK 04/03 Q1003
EFSI 210120Z AUTO 19001KT CAVOK 04/03 Q1004
EFSI 210050Z AUTO 17001KT CAVOK 04/02 Q1004
EFSI 210020Z AUTO 27002KT CAVOK 06/03 Q1003
EFSI 202350Z AUTO VRB01KT CAVOK 08/03 Q1004
EFSI 202320Z AUTO VRB01KT CAVOK 08/03 Q1004
EFSI 202250Z AUTO 20002KT CAVOK 08/03 Q1004
EFSI 202220Z AUTO VRB02KT CAVOK 09/03 Q1004
EFSI 202150Z AUTO VRB01KT CAVOK 10/02 Q1004
EFSI 202120Z AUTO 21002KT CAVOK 10/02 Q1004
EFSI 202050Z AUTO 23002KT CAVOK 11/02 Q1004
EFSI 202020Z AUTO 22003KT CAVOK 12/02 Q1004
EFSI 201950Z AUTO 24003KT CAVOK 13/01 Q1004
EFSI 201920Z AUTO 25003KT CAVOK 14/01 Q1004
EFSI 201850Z AUTO 24005KT 190V280 CAVOK 15/02 Q1004
EFSI 201820Z AUTO 26006KT 180V300 CAVOK 15/02 Q1004
EFSI 201750Z AUTO 26007KT 180V350 CAVOK 16/02 Q1004
EFSI 201720Z AUTO 24007KT 160V310 CAVOK 16/02 Q1004
EFSI 201650Z AUTO 26008KT 190V320 CAVOK 17/02 Q1004
EFSI 201620Z AUTO 27011KT 210V320 CAVOK 17/02 Q1004
EFSI 201550Z AUTO 26010KT 210V330 CAVOK 17/02 Q1004
EFSI 201520Z AUTO 26010KT 190V320 CAVOK 17/02 Q1004
EFSI 201450Z AUTO 27013KT 240V330 CAVOK 17/02 Q1004
EFSI 201420Z AUTO 27014KT 220V320 CAVOK 18/02 Q1004